createdAt,value
2019-05-18T00:00:27.232Z,96.50
2019-05-18T00:02:54.688Z,96.50
2019-05-18T00:05:22.255Z,96.50
2019-05-18T00:07:49.717Z,96.80
2019-05-18T00:10:17.175Z,96.80
2019-05-18T00:12:47.741Z,97.00
2019-05-18T00:15:15.310Z,97.10
2019-05-18T00:17:42.835Z,97.40
2019-05-18T00:20:10.602Z,97.20
2019-05-18T00:22:38.173Z,97.40
2019-05-18T00:25:05.834Z,97.00
2019-05-18T00:27:33.430Z,97.40
2019-05-18T00:30:01.329Z,97.40
2019-05-18T00:32:33.002Z,96.80
2019-05-18T00:35:01.056Z,96.70
2019-05-18T00:37:30.981Z,96.20
2019-05-18T00:39:58.897Z,96.50
2019-05-18T00:42:28.803Z,95.90
2019-05-18T00:44:57.796Z,95.70
2019-05-18T00:47:40.415Z,95.20
2019-05-18T00:50:00.118Z,95.50
2019-05-18T00:52:27.666Z,95.90
2019-05-18T00:54:56.071Z,96.00
2019-05-18T00:57:30.146Z,96.20
2019-05-18T01:00:03.941Z,96.20
2019-05-18T01:02:30.446Z,96.10
2019-05-18T01:05:01.795Z,96.30
2019-05-18T01:07:31.195Z,96.60
2019-05-18T01:10:02.593Z,96.30
2019-05-18T01:12:30.147Z,96.10
2019-05-18T01:14:57.753Z,96.10
2019-05-18T01:17:26.387Z,96.50
2019-05-18T01:19:54.024Z,96.90
2019-05-18T01:22:23.533Z,97.00
2019-05-18T01:24:51.771Z,96.80
2019-05-18T01:27:19.515Z,97.00
2019-05-18T01:29:48.145Z,97.30
2019-05-18T01:32:15.606Z,97.30
2019-05-18T01:34:44.220Z,97.40
2019-05-18T01:37:11.670Z,97.40
2019-05-18T01:39:39.525Z,97.40
2019-05-18T01:42:06.979Z,97.40
2019-05-18T01:44:34.423Z,97.40
2019-05-18T01:47:01.881Z,97.40
2019-05-18T01:49:29.383Z,97.40
2019-05-18T01:51:58.255Z,97.40
2019-05-18T01:54:25.863Z,97.40
2019-05-18T01:56:53.366Z,97.40
2019-05-18T01:59:20.819Z,97.40
2019-05-18T02:01:48.458Z,97.40
2019-05-18T02:04:15.930Z,97.40
2019-05-18T02:06:43.390Z,97.40
2019-05-18T02:09:11.737Z,97.40
2019-05-18T02:11:39.537Z,97.40
2019-05-18T02:14:08.138Z,97.40
2019-05-18T02:16:35.695Z,97.40
2019-05-18T02:19:04.244Z,97.40
2019-05-18T02:21:31.740Z,97.40
2019-05-18T02:23:59.443Z,97.40
2019-05-18T02:26:26.967Z,97.40
2019-05-18T02:28:54.534Z,97.40
2019-05-18T02:31:22.206Z,97.40
2019-05-18T02:33:49.792Z,97.40
2019-05-18T02:36:17.334Z,97.40
2019-05-18T02:38:44.793Z,97.40
2019-05-18T02:41:12.401Z,97.40
2019-05-18T02:43:40.482Z,97.20
2019-05-18T02:46:08.617Z,97.10
2019-05-18T02:48:48.533Z,97.10
2019-05-18T02:51:11.140Z,97.00
2019-05-18T02:53:36.871Z,97.00
2019-05-18T02:56:04.380Z,97.00
2019-05-18T02:58:31.858Z,96.90
2019-05-18T03:00:59.288Z,96.90
2019-05-18T03:03:26.802Z,96.90
2019-05-18T03:05:54.744Z,96.90
2019-05-18T03:08:22.206Z,96.70
2019-05-18T03:10:49.691Z,96.70
2019-05-18T03:13:17.243Z,96.80
2019-05-18T03:15:44.691Z,96.80
2019-05-18T03:18:12.809Z,96.90
2019-05-18T03:20:40.331Z,96.80
2019-05-18T03:23:07.813Z,96.80
2019-05-18T03:25:35.333Z,96.90
2019-05-18T03:28:02.835Z,96.90
2019-05-18T03:30:30.568Z,96.90
2019-05-18T03:32:58.106Z,96.90
2019-05-18T03:35:25.592Z,96.30
2019-05-18T03:37:53.234Z,96.30
2019-05-18T03:40:20.827Z,96.40
2019-05-18T03:42:48.337Z,96.40
2019-05-18T03:45:15.849Z,96.70
2019-05-18T03:47:43.401Z,96.70
2019-05-18T03:50:10.884Z,96.80
2019-05-18T03:52:38.415Z,96.80
2019-05-18T03:55:05.913Z,96.40
2019-05-18T03:57:33.366Z,96.50
2019-05-18T04:00:01.702Z,96.80
2019-05-18T04:02:29.344Z,96.90
2019-05-18T04:04:56.862Z,96.90
2019-05-18T04:07:24.535Z,96.50
2019-05-18T04:09:52.059Z,96.70
2019-05-18T04:12:19.550Z,96.70
2019-05-18T04:14:47.581Z,96.50
2019-05-18T04:17:15.358Z,96.50
2019-05-18T04:19:46.931Z,96.10
2019-05-18T04:22:12.424Z,95.90
2019-05-18T04:24:39.883Z,95.80
2019-05-18T04:27:07.476Z,95.90
2019-05-18T04:29:34.956Z,95.30
2019-05-18T04:32:02.461Z,95.10
2019-05-18T04:34:29.994Z,95.40
2019-05-18T04:36:57.551Z,95.80
2019-05-18T04:39:25.042Z,95.60
2019-05-18T04:41:52.814Z,95.70
2019-05-18T04:44:20.443Z,95.70
2019-05-18T04:46:48.120Z,95.70
2019-05-18T04:49:15.598Z,95.70
2019-05-18T04:51:43.792Z,95.90
2019-05-18T04:54:11.458Z,95.90
2019-05-18T04:56:42.796Z,95.30
2019-05-18T04:59:09.393Z,95.30
2019-05-18T05:01:37.053Z,94.70
2019-05-18T05:04:04.475Z,94.50
2019-05-18T05:06:31.994Z,94.40
2019-05-18T05:08:59.493Z,94.60
2019-05-18T05:11:27.233Z,94.60
2019-05-18T05:13:54.706Z,95.30
2019-05-18T05:16:22.307Z,95.30
2019-05-18T05:18:49.915Z,95.40
2019-05-18T05:21:17.515Z,95.40
2019-05-18T05:23:45.125Z,95.80
2019-05-18T05:26:12.624Z,95.00
2019-05-18T05:28:40.210Z,94.70
2019-05-18T05:31:07.771Z,94.50
2019-05-18T05:33:35.254Z,94.10
2019-05-18T05:36:02.812Z,93.70
2019-05-18T05:38:30.305Z,93.30
2019-05-18T05:40:57.765Z,93.30
2019-05-18T05:43:25.295Z,92.50
2019-05-18T05:45:52.882Z,91.40
2019-05-18T05:48:20.350Z,92.50
2019-05-18T05:50:47.877Z,92.40
2019-05-18T05:53:15.420Z,92.60
2019-05-18T05:55:43.194Z,91.70
2019-05-18T05:58:10.805Z,90.70
2019-05-18T06:00:38.262Z,91.10
2019-05-18T06:03:05.869Z,91.20
2019-05-18T06:05:33.380Z,90.60
2019-05-18T06:08:00.884Z,90.10
2019-05-18T06:10:29.462Z,90.10
2019-05-18T06:12:57.081Z,89.20
2019-05-18T06:15:24.589Z,88.40
2019-05-18T06:17:52.150Z,87.10
2019-05-18T06:20:19.626Z,86.80
2019-05-18T06:22:47.235Z,87.10
2019-05-18T06:25:15.851Z,87.30
2019-05-18T06:27:43.622Z,87.10
2019-05-18T06:30:11.286Z,86.40
2019-05-18T06:32:38.743Z,84.90
2019-05-18T06:35:06.909Z,84.30
2019-05-18T06:37:34.407Z,82.80
2019-05-18T06:40:03.320Z,83.00
2019-05-18T06:42:30.833Z,83.20
2019-05-18T06:44:58.299Z,82.50
2019-05-18T06:47:28.470Z,81.70
2019-05-18T06:49:56.126Z,81.50
2019-05-18T06:52:23.617Z,82.10
2019-05-18T06:54:51.104Z,81.70
2019-05-18T06:57:19.214Z,80.20
2019-05-18T06:59:46.878Z,77.10
2019-05-18T07:02:14.330Z,76.30
2019-05-18T07:04:44.611Z,74.60
2019-05-18T07:07:12.405Z,74.50
2019-05-18T07:09:40.303Z,75.60
2019-05-18T07:12:07.847Z,77.10
2019-05-18T07:14:36.168Z,75.60
2019-05-18T07:17:05.306Z,75.60
2019-05-18T07:19:32.977Z,75.00
2019-05-18T07:22:00.596Z,76.30
2019-05-18T07:24:28.205Z,73.30
2019-05-18T07:26:55.769Z,75.60
2019-05-18T07:29:23.326Z,74.10
2019-05-18T07:31:51.172Z,73.50
2019-05-18T07:34:18.650Z,71.70
2019-05-18T07:36:46.128Z,70.90
2019-05-18T07:39:13.614Z,70.00
2019-05-18T07:41:46.674Z,65.50
2019-05-18T07:44:11.154Z,65.50
2019-05-18T07:46:38.665Z,64.40
2019-05-18T07:49:06.265Z,63.30
2019-05-18T07:51:36.955Z,62.90
2019-05-18T07:54:03.297Z,61.00
2019-05-18T07:56:30.891Z,62.20
2019-05-18T07:58:58.442Z,60.70
2019-05-18T08:01:25.918Z,65.50
2019-05-18T08:03:53.401Z,65.10
2019-05-18T08:06:20.949Z,62.90
2019-05-18T08:08:48.678Z,65.00
2019-05-18T08:11:16.213Z,64.60
2019-05-18T08:13:43.879Z,65.30
2019-05-18T08:16:11.386Z,63.80
2019-05-18T08:18:39.041Z,61.60
2019-05-18T08:21:09.055Z,60.30
2019-05-18T08:23:39.820Z,60.70
2019-05-18T08:26:07.535Z,62.00
2019-05-18T08:28:35.108Z,60.70
2019-05-18T08:31:02.629Z,57.70
2019-05-18T08:33:30.135Z,56.70
2019-05-18T08:35:57.650Z,59.30
2019-05-18T08:38:25.231Z,58.30
2019-05-18T08:40:52.693Z,56.30
2019-05-18T08:43:21.341Z,55.50
2019-05-18T08:45:48.877Z,57.50
2019-05-18T08:48:16.543Z,56.40
2019-05-18T08:50:44.176Z,57.20
2019-05-18T08:53:11.657Z,58.00
2019-05-18T08:55:39.440Z,56.10
2019-05-18T08:58:06.949Z,57.50
2019-05-18T09:00:34.624Z,59.00
2019-05-18T09:03:02.414Z,58.70
2019-05-18T09:05:30.195Z,57.50
2019-05-18T09:07:58.046Z,59.00
2019-05-18T09:10:25.577Z,56.60
2019-05-18T09:12:53.754Z,54.90
2019-05-18T09:15:21.839Z,55.50
2019-05-18T09:17:49.524Z,54.20
2019-05-18T09:20:17.541Z,53.20
2019-05-18T09:22:45.221Z,49.60
2019-05-18T09:25:13.377Z,49.60
2019-05-18T09:27:41.365Z,52.20
2019-05-18T09:30:09.302Z,51.90
2019-05-18T09:32:37.221Z,53.20
2019-05-18T09:35:05.895Z,51.90
2019-05-18T09:37:33.537Z,49.70
2019-05-18T09:40:01.148Z,47.80
2019-05-18T09:42:29.082Z,47.00
2019-05-18T09:44:56.583Z,48.40
2019-05-18T09:47:24.169Z,48.80
2019-05-18T09:49:51.837Z,45.80
2019-05-18T09:52:19.312Z,46.70
2019-05-18T09:54:47.832Z,47.90
2019-05-18T09:57:15.384Z,48.70
2019-05-18T09:59:42.869Z,42.60
2019-05-18T10:02:10.477Z,44.70
2019-05-18T10:04:41.222Z,44.00
2019-05-18T10:07:08.813Z,42.00
2019-05-18T10:09:39.213Z,41.10
2019-05-18T10:12:06.932Z,38.80
2019-05-18T10:14:34.478Z,37.90
2019-05-18T10:17:02.048Z,41.40
2019-05-18T10:19:29.906Z,38.30
2019-05-18T10:21:57.563Z,36.80
2019-05-18T10:24:25.258Z,37.60
2019-05-18T10:26:52.925Z,36.60
2019-05-18T10:29:20.685Z,35.00
2019-05-18T10:31:48.210Z,35.70
2019-05-18T10:34:15.833Z,37.30
2019-05-18T10:36:43.321Z,35.30
2019-05-18T10:39:10.865Z,36.60
2019-05-18T10:41:38.338Z,35.00
2019-05-18T10:44:05.854Z,36.60
2019-05-18T10:46:33.502Z,36.60
2019-05-18T10:49:01.222Z,36.00
2019-05-18T10:51:28.925Z,36.90
2019-05-18T10:53:56.457Z,35.70
2019-05-18T10:56:23.943Z,32.70
2019-05-18T10:58:52.047Z,32.70
2019-05-18T11:01:19.834Z,32.70
2019-05-18T11:03:47.538Z,31.00
2019-05-18T11:06:15.127Z,33.30
2019-05-18T11:08:42.656Z,31.00
2019-05-18T11:11:10.114Z,35.70
2019-05-18T11:13:37.790Z,31.80
2019-05-18T11:16:07.237Z,32.50
2019-05-18T11:18:34.765Z,32.80
2019-05-18T11:21:02.280Z,32.50
2019-05-18T11:23:42.783Z,31.00
2019-05-18T11:26:00.141Z,32.10
2019-05-18T11:28:29.120Z,29.60
2019-05-18T11:30:57.022Z,29.40
2019-05-18T11:33:24.663Z,30.20
2019-05-18T11:35:52.283Z,29.50
2019-05-18T11:38:19.822Z,28.40
2019-05-18T11:40:47.373Z,29.50
2019-05-18T11:43:14.889Z,29.30
2019-05-18T11:45:42.875Z,27.90
2019-05-18T11:48:10.458Z,28.40
2019-05-18T11:50:38.017Z,28.70
2019-05-18T11:53:05.650Z,29.50
2019-05-18T11:55:33.508Z,28.90
2019-05-18T11:58:01.320Z,29.80
2019-05-18T12:00:28.989Z,30.90
2019-05-18T12:02:56.650Z,32.80
2019-05-18T12:05:24.230Z,32.50
2019-05-18T12:07:52.492Z,34.10
2019-05-18T12:10:22.028Z,37.10
2019-05-18T12:12:49.657Z,38.30
2019-05-18T12:15:17.395Z,41.70
2019-05-18T12:17:44.864Z,45.50
2019-05-18T12:20:14.146Z,46.70
2019-05-18T12:22:41.670Z,46.80
2019-05-18T12:25:09.341Z,49.10
2019-05-18T12:27:36.867Z,49.60
2019-05-18T12:30:05.447Z,53.20
2019-05-18T12:32:33.072Z,57.40
2019-05-18T12:35:00.678Z,57.50
2019-05-18T12:37:28.277Z,58.00
2019-05-18T12:39:55.746Z,57.70
2019-05-18T12:42:23.283Z,62.70
2019-05-18T12:44:50.765Z,59.90
2019-05-18T12:47:18.265Z,58.30
2019-05-18T12:49:45.776Z,59.00
2019-05-18T12:52:13.646Z,61.20
2019-05-18T12:54:46.390Z,60.70
2019-05-18T12:57:10.857Z,61.40
2019-05-18T12:59:38.394Z,61.40
2019-05-18T13:02:06.060Z,62.20
2019-05-18T13:04:33.562Z,60.90
2019-05-18T13:07:01.130Z,60.10
2019-05-18T13:09:28.901Z,60.30
2019-05-18T13:11:56.477Z,57.80
2019-05-18T13:14:24.127Z,57.80
2019-05-18T13:16:51.727Z,57.50
2019-05-18T13:19:19.491Z,58.60
2019-05-18T13:21:47.302Z,59.30
2019-05-18T13:24:14.959Z,57.50
2019-05-18T13:26:42.538Z,57.20
2019-05-18T13:29:10.033Z,58.90
2019-05-18T13:31:37.571Z,58.00
2019-05-18T13:34:05.671Z,55.50
2019-05-18T13:36:33.220Z,56.30
2019-05-18T13:39:00.762Z,57.00
2019-05-18T13:41:28.346Z,56.00
2019-05-18T13:43:55.946Z,53.70
2019-05-18T13:46:23.421Z,55.10
2019-05-18T13:48:50.924Z,56.70
2019-05-18T13:51:18.378Z,54.60
2019-05-18T13:53:45.931Z,54.80
2019-05-18T13:56:13.388Z,52.60
2019-05-18T13:58:40.976Z,54.20
2019-05-18T14:01:09.040Z,56.00
2019-05-18T14:03:36.738Z,57.50
2019-05-18T14:06:04.216Z,58.30
2019-05-18T14:08:31.704Z,60.70
2019-05-18T14:10:59.186Z,63.80
2019-05-18T14:13:27.001Z,73.30
2019-05-18T14:15:55.017Z,77.80
2019-05-18T14:18:22.713Z,78.40
2019-05-18T14:20:50.190Z,79.70
2019-05-18T14:23:17.763Z,79.90
2019-05-18T14:25:46.187Z,81.20
2019-05-18T14:28:13.897Z,84.70
2019-05-18T14:30:41.341Z,83.60
2019-05-18T14:33:08.825Z,85.50
2019-05-18T14:35:36.313Z,88.60
2019-05-18T14:38:03.759Z,90.70
2019-05-18T14:40:31.315Z,91.20
2019-05-18T14:42:58.750Z,91.40
2019-05-18T14:45:26.203Z,91.10
2019-05-18T14:47:53.788Z,89.00
2019-05-18T14:50:21.480Z,90.10
2019-05-18T14:52:49.238Z,87.30
2019-05-18T14:55:16.797Z,85.80
2019-05-18T14:57:44.459Z,86.20
2019-05-18T15:00:12.530Z,87.90
2019-05-18T15:02:40.071Z,89.20
2019-05-18T15:05:08.154Z,89.60
2019-05-18T15:07:35.595Z,90.90
2019-05-18T15:10:03.533Z,90.10
2019-05-18T15:12:31.090Z,87.90
2019-05-18T15:14:58.588Z,87.10
2019-05-18T15:17:26.045Z,83.40
2019-05-18T15:19:53.643Z,82.10
2019-05-18T15:22:21.073Z,80.60
2019-05-18T15:24:48.649Z,80.60
2019-05-18T15:27:16.200Z,79.10
2019-05-18T15:29:43.959Z,75.00
2019-05-18T15:32:11.566Z,76.90
2019-05-18T15:34:39.065Z,76.30
2019-05-18T15:37:06.585Z,77.60
2019-05-18T15:39:34.048Z,78.00
2019-05-18T15:42:01.512Z,77.10
2019-05-18T15:44:29.317Z,78.90
2019-05-18T15:46:56.966Z,79.90
2019-05-18T15:49:24.395Z,77.60
2019-05-18T15:51:51.844Z,76.50
2019-05-18T15:54:19.570Z,77.60
2019-05-18T15:56:47.385Z,74.30
2019-05-18T15:59:14.970Z,73.30
2019-05-18T16:01:42.500Z,74.60
2019-05-18T16:04:10.269Z,78.60
2019-05-18T16:06:37.868Z,81.70
2019-05-18T16:09:06.183Z,81.40
2019-05-18T16:11:34.475Z,76.90
2019-05-18T16:14:02.171Z,76.70
2019-05-18T16:16:29.741Z,79.70
2019-05-18T16:18:57.180Z,78.60
2019-05-18T16:21:24.740Z,74.60
2019-05-18T16:23:52.561Z,74.80
2019-05-18T16:26:21.888Z,75.60
2019-05-18T16:28:49.592Z,77.30
2019-05-18T16:31:17.065Z,75.80
2019-05-18T16:33:44.936Z,75.40
2019-05-18T16:36:12.656Z,75.90
2019-05-18T16:38:40.396Z,77.80
2019-05-18T16:41:08.090Z,78.40
2019-05-18T16:43:35.646Z,78.90
2019-05-18T16:46:03.091Z,77.80
2019-05-18T16:48:30.660Z,77.40
2019-05-18T16:50:58.121Z,78.40
2019-05-18T16:53:25.801Z,77.80
2019-05-18T16:55:53.244Z,79.10
2019-05-18T16:58:20.752Z,79.30
2019-05-18T17:00:48.635Z,79.10
2019-05-18T17:03:16.121Z,78.90
2019-05-18T17:05:43.855Z,79.30
2019-05-18T17:08:11.388Z,80.20
2019-05-18T17:10:38.901Z,81.00
2019-05-18T17:13:06.362Z,80.20
2019-05-18T17:15:33.839Z,80.00
2019-05-18T17:18:01.274Z,81.50
2019-05-18T17:20:29.108Z,81.50
2019-05-18T17:22:56.723Z,82.10
2019-05-18T17:25:24.264Z,82.80
2019-05-18T17:27:51.793Z,82.80
2019-05-18T17:30:19.570Z,82.70
2019-05-18T17:32:47.166Z,83.80
2019-05-18T17:35:14.854Z,83.00
2019-05-18T17:37:42.579Z,83.00
2019-05-18T17:40:10.322Z,82.50
2019-05-18T17:42:37.868Z,82.70
2019-05-18T17:45:06.656Z,81.70
2019-05-18T17:47:34.124Z,81.00
2019-05-18T17:50:01.738Z,82.10
2019-05-18T17:52:29.151Z,82.50
2019-05-18T17:54:57.530Z,84.00
2019-05-18T17:57:25.194Z,84.50
2019-05-18T17:59:52.773Z,84.30
2019-05-18T18:02:20.425Z,84.90
2019-05-18T18:04:48.070Z,86.20
2019-05-18T18:07:15.523Z,88.20
2019-05-18T18:09:43.090Z,89.00
2019-05-18T18:12:11.134Z,89.00
2019-05-18T18:14:38.743Z,89.90
2019-05-18T18:17:06.340Z,90.10
2019-05-18T18:19:33.762Z,90.60
2019-05-18T18:22:01.182Z,90.10
2019-05-18T18:24:28.916Z,90.50
2019-05-18T18:26:56.486Z,90.80
2019-05-18T18:29:23.988Z,91.10
2019-05-18T18:31:51.498Z,91.30
2019-05-18T18:34:38.247Z,91.30
2019-05-18T18:37:08.931Z,91.20
2019-05-18T18:39:36.402Z,91.40
2019-05-18T18:42:03.879Z,91.70
2019-05-18T18:44:31.498Z,92.20
2019-05-18T18:46:59.023Z,91.90
2019-05-18T18:49:26.510Z,91.90
2019-05-18T18:51:53.976Z,92.10
2019-05-18T18:54:21.464Z,92.30
2019-05-18T18:56:49.008Z,92.50
2019-05-18T18:59:16.674Z,92.20
2019-05-18T19:01:44.278Z,91.60
2019-05-18T19:04:11.794Z,90.70
2019-05-18T19:06:39.320Z,90.70
2019-05-18T19:09:07.003Z,90.20
2019-05-18T19:11:35.149Z,90.30
2019-05-18T19:14:03.444Z,89.90
2019-05-18T19:16:30.998Z,90.50
2019-05-18T19:18:58.445Z,90.20
2019-05-18T19:21:25.998Z,89.90
2019-05-18T19:23:53.390Z,91.00
2019-05-18T19:26:20.954Z,91.20
2019-05-18T19:28:48.488Z,91.50
2019-05-18T19:31:15.927Z,91.70
2019-05-18T19:33:43.501Z,91.80
2019-05-18T19:36:10.987Z,92.00
2019-05-18T19:38:38.534Z,91.50
2019-05-18T19:41:06.078Z,91.90
2019-05-18T19:43:33.581Z,92.30
2019-05-18T19:46:01.064Z,92.10
2019-05-18T19:48:28.594Z,92.40
2019-05-18T19:50:56.065Z,92.70
2019-05-18T19:53:23.574Z,92.90
2019-05-18T19:55:51.278Z,92.80
2019-05-18T19:58:19.955Z,92.90
2019-05-18T20:00:47.492Z,92.60
2019-05-18T20:03:15.153Z,92.80
2019-05-18T20:05:42.609Z,92.90
2019-05-18T20:08:10.046Z,93.20
2019-05-18T20:10:37.561Z,93.50
2019-05-18T20:13:05.078Z,93.80
2019-05-18T20:15:32.640Z,93.90
2019-05-18T20:18:00.122Z,93.90
2019-05-18T20:20:27.584Z,93.80
2019-05-18T20:22:55.175Z,93.80
2019-05-18T20:25:22.657Z,94.10
2019-05-18T20:27:50.171Z,93.60
2019-05-18T20:30:17.720Z,93.10
2019-05-18T20:32:45.174Z,93.20
2019-05-18T20:35:12.680Z,93.50
2019-05-18T20:37:40.384Z,93.10
2019-05-18T20:40:08.199Z,92.40
2019-05-18T20:42:37.689Z,92.80
2019-05-18T20:45:05.243Z,93.10
2019-05-18T20:47:33.198Z,92.60
2019-05-18T20:50:00.748Z,91.70
2019-05-18T20:52:28.221Z,92.60
2019-05-18T20:54:55.669Z,93.20
2019-05-18T20:57:23.145Z,93.20
2019-05-18T20:59:50.671Z,93.50
2019-05-18T21:02:18.192Z,94.00
2019-05-18T21:04:45.662Z,94.30
2019-05-18T21:07:13.141Z,94.30
2019-05-18T21:09:41.738Z,94.30
2019-05-18T21:12:09.426Z,94.40
2019-05-18T21:14:56.354Z,94.00
2019-05-18T21:17:23.861Z,93.30
2019-05-18T21:19:51.420Z,94.10
2019-05-18T21:22:20.086Z,94.40
2019-05-18T21:24:47.582Z,94.50
2019-05-18T21:27:15.141Z,93.20
2019-05-18T21:29:42.583Z,93.60
2019-05-18T21:32:10.074Z,93.30
2019-05-18T21:34:37.534Z,92.80
2019-05-18T21:37:05.076Z,92.70
2019-05-18T21:39:32.550Z,93.00
2019-05-18T21:42:03.138Z,92.90
2019-05-18T21:44:30.816Z,93.00
2019-05-18T21:46:58.306Z,93.60
2019-05-18T21:49:25.743Z,93.50
2019-05-18T21:51:53.638Z,93.30
2019-05-18T21:54:21.098Z,93.70
2019-05-18T21:56:48.604Z,94.20
2019-05-18T21:59:16.030Z,94.30
2019-05-18T22:01:44.702Z,94.60
2019-05-18T22:04:12.416Z,94.50
2019-05-18T22:06:40.167Z,94.50
2019-05-18T22:09:07.647Z,94.40
2019-05-18T22:11:35.345Z,94.40
2019-05-18T22:14:03.674Z,94.30
2019-05-18T22:16:31.149Z,94.20
2019-05-18T22:18:58.725Z,94.30
2019-05-18T22:21:26.430Z,94.10
2019-05-18T22:23:53.976Z,94.20
2019-05-18T22:26:21.686Z,94.30
2019-05-18T22:28:49.268Z,94.40
2019-05-18T22:31:19.486Z,94.30
2019-05-18T22:33:46.405Z,94.40
2019-05-18T22:36:13.832Z,94.60
2019-05-18T22:38:42.174Z,94.70
2019-05-18T22:41:09.714Z,94.80
2019-05-18T22:43:37.267Z,94.70
2019-05-18T22:46:04.677Z,95.00
2019-05-18T22:48:41.464Z,95.10
2019-05-18T22:51:01.682Z,95.20
2019-05-18T22:53:29.130Z,95.40
2019-05-18T22:55:56.568Z,95.80
2019-05-18T22:58:24.087Z,96.00
2019-05-18T23:00:51.514Z,96.10
2019-05-18T23:03:18.977Z,96.40
2019-05-18T23:05:46.461Z,96.60
2019-05-18T23:08:13.894Z,96.60
2019-05-18T23:10:41.444Z,96.40
2019-05-18T23:13:08.889Z,96.40
